Time;durP1;ratioP1;P1;durP2;ratioP2;P2;SDS_P1;SDS_P2;PMS_P1;PMS_P2;Temp;Humidity;BMP_temperature;BMP_pressure;BME280_temperature;BME280_humidity;BME280_pressure;Samples;Min_cycle;Max_cycle;Signal;HPM_P1;HPM_P2
2022/09/20 00:00:50;;;;;;;7.42;4.55;;;;;;;10.50;70.11;99872.44;1756733;80;21358;-75
2022/09/20 00:03:17;;;;;;;7.80;4.58;;;;;;;10.49;70.17;99874.73;1774684;79;22385;-74
2022/09/20 00:05:45;;;;;;;8.93;4.70;;;;;;;10.51;70.23;99877.23;1764434;80;22572;-74
2022/09/20 00:08:15;;;;;;;8.35;4.45;;;;;;;10.50;70.32;99879.53;1750169;80;21004;-74
2022/09/20 00:10:42;;;;;;;7.42;4.35;;;;;;;10.49;70.35;99886.62;1758532;80;21012;-74
2022/09/20 00:13:11;;;;;;;7.42;4.62;;;;;;;10.47;70.24;99889.88;1766063;79;20973;-74
2022/09/20 00:15:44;;;;;;;10.30;4.62;;;;;;;10.45;70.28;99885.23;1759060;79;21019;-74
2022/09/20 00:18:12;;;;;;;8.63;4.78;;;;;;;10.44;70.27;99882.23;1753165;80;21844;-72
2022/09/20 00:20:46;;;;;;;7.37;4.72;;;;;;;10.43;70.31;99877.09;1754402;80;20929;-74
2022/09/20 00:23:12;;;;;;;6.45;4.37;;;;;;;10.42;70.29;99869.66;1790205;79;20963;-74
2022/09/20 00:25:39;;;;;;;8.30;4.92;;;;;;;10.43;70.30;99871.81;1796810;79;20960;-73
2022/09/20 00:28:06;;;;;;;7.30;4.40;;;;;;;10.44;70.34;99870.84;1761394;80;21471;-75
2022/09/20 00:30:33;;;;;;;8.48;4.87;;;;;;;10.43;70.42;99866.05;1780043;80;21918;-73
2022/09/20 00:33:00;;;;;;;7.17;4.50;;;;;;;10.42;70.54;99858.23;1733778;81;21002;-74
2022/09/20 00:35:28;;;;;;;10.13;4.58;;;;;;;10.44;70.62;99862.44;1779983;80;21032;-74
2022/09/20 00:37:55;;;;;;;9.45;4.97;;;;;;;10.44;70.63;99857.64;1759543;81;21040;-73
2022/09/20 00:40:22;;;;;;;7.60;4.55;;;;;;;10.44;70.68;99852.36;1780428;80;21043;-73
2022/09/20 00:42:49;;;;;;;8.35;4.62;;;;;;;10.41;70.70;99838.92;1763150;79;21778;-74
2022/09/20 00:45:24;;;;;;;7.90;4.80;;;;;;;10.38;70.69;99842.32;1763387;80;21068;-72
2022/09/20 00:48:14;;;;;;;9.63;4.87;;;;;;;10.35;70.68;99846.56;1765275;80;21055;-73
2022/09/20 00:50:45;;;;;;;10.00;4.72;;;;;;;10.30;70.56;99846.45;1759755;80;20984;-74
2022/09/20 00:53:20;;;;;;;6.90;4.40;;;;;;;10.25;70.57;99834.16;1754061;80;21477;-75
2022/09/20 00:55:55;;;;;;;11.40;4.60;;;;;;;10.21;70.60;99837.98;1755947;80;21834;-75
2022/09/20 00:58:23;;;;;;;7.70;4.95;;;;;;;10.16;70.61;99843.31;1759649;80;20998;-74
2022/09/20 01:00:50;;;;;;;8.88;4.53;;;;;;;10.09;70.62;99843.00;1759493;80;20964;-74
2022/09/20 01:03:19;;;;;;;7.45;4.33;;;;;;;10.03;70.65;99839.07;1776465;79;21052;-75
2022/09/20 01:05:45;;;;;;;9.18;4.70;;;;;;;9.96;70.72;99834.48;1778463;79;21012;-73
2022/09/20 01:08:12;;;;;;;8.05;4.28;;;;;;;9.91;70.81;99835.34;1754898;79;21749;-74
2022/09/20 01:10:38;;;;;;;9.00;4.60;;;;;;;9.83;70.78;99830.70;1751551;80;21040;-74
2022/09/20 01:13:06;;;;;;;6.92;4.58;;;;;;;9.78;70.81;99826.32;1769035;80;21101;-74
2022/09/20 01:15:33;;;;;;;8.48;4.12;;;;;;;9.74;70.89;99829.68;1782785;78;21029;-73
2022/09/20 01:18:00;;;;;;;8.08;4.35;;;;;;;9.70;70.92;99830.91;1755509;80;21114;-74
2022/09/20 01:20:33;;;;;;;6.60;4.65;;;;;;;9.65;70.96;99824.34;1756861;80;21812;-74
2022/09/20 01:23:34;;;;;;;6.95;4.30;;;;;;;9.60;71.04;99826.06;1790260;79;21000;-75
2022/09/20 01:26:47;;;;;;;6.50;4.12;;;;;;;9.54;71.12;99822.61;1774889;79;21146;-74
2022/09/20 01:29:28;;;;;;;7.12;4.20;;;;;;;9.49;71.07;99826.62;1760993;81;21057;-73
2022/09/20 01:31:57;;;;;;;10.05;4.50;;;;;;;9.42;71.02;99819.69;1750967;81;20952;-74
2022/09/20 01:34:34;;;;;;;7.62;4.20;;;;;;;9.36;71.18;99818.87;1768279;79;22580;-75
2022/09/20 01:37:15;;;;;;;9.13;4.17;;;;;;;9.31;71.29;99814.48;1776346;79;21158;-74
2022/09/20 01:40:18;;;;;;;8.45;4.20;;;;;;;9.28;71.67;99810.80;1774238;79;21467;-75
2022/09/20 01:42:57;;;;;;;8.85;4.22;;;;;;;9.22;71.92;99802.91;1747913;79;21025;-75
2022/09/20 01:45:29;;;;;;;8.20;3.90;;;;;;;9.14;72.13;99788.20;1766222;79;21111;-75
2022/09/20 01:48:08;;;;;;;7.20;3.85;;;;;;;9.09;72.24;99782.50;1769162;79;21757;-74
2022/09/20 01:51:32;;;;;;;6.83;4.03;;;;;;;9.03;72.30;99779.04;1748838;81;20960;-74
2022/09/20 01:54:40;;;;;;;6.35;3.75;;;;;;;8.98;72.42;99778.11;1741508;81;20972;-74
2022/09/20 01:57:32;;;;;;;7.17;4.05;;;;;;;8.89;72.80;99788.92;1771406;80;20995;-74
2022/09/20 02:00:11;;;;;;;6.42;3.80;;;;;;;8.86;72.62;99794.90;1756350;79;21015;-75
2022/09/20 02:03:13;;;;;;;8.43;3.80;;;;;;;8.82;72.52;99808.80;1756336;81;21959;-74
2022/09/20 02:06:07;;;;;;;10.80;4.30;;;;;;;8.81;72.55;99806.30;1763337;80;21050;-74
2022/09/20 02:08:40;;;;;;;8.75;3.90;;;;;;;8.79;72.77;99803.80;1771545;79;21127;-74
2022/09/20 02:11:15;;;;;;;7.03;3.85;;;;;;;8.78;73.00;99803.45;1795534;79;20964;-75
2022/09/20 02:13:59;;;;;;;7.72;4.10;;;;;;;8.81;73.15;99800.55;1755183;80;21051;-75
2022/09/20 02:16:45;;;;;;;6.50;3.87;;;;;;;8.81;73.30;99798.41;1777523;78;21973;-74
2022/09/20 02:19:56;;;;;;;7.83;3.55;;;;;;;8.82;73.46;99793.48;1768570;80;21000;-75
2022/09/20 02:22:56;;;;;;;5.67;3.60;;;;;;;8.86;73.50;99801.48;1721812;83;21133;-74
2022/09/20 02:25:46;;;;;;;5.42;3.72;;;;;;;8.91;73.57;99800.64;1771659;78;21458;-76
2022/09/20 02:28:24;;;;;;;6.70;3.40;;;;;;;8.92;73.61;99804.11;1774342;78;21473;-74
2022/09/20 02:31:17;;;;;;;5.53;3.40;;;;;;;8.96;73.61;99806.84;1764899;79;21905;-73
2022/09/20 02:34:18;;;;;;;8.03;3.52;;;;;;;8.98;73.69;99803.63;1767096;79;21037;-75
2022/09/20 02:37:10;;;;;;;6.95;3.47;;;;;;;8.99;73.83;99803.97;1758215;80;21055;-73
2022/09/20 02:40:04;;;;;;;5.45;3.47;;;;;;;9.01;73.91;99804.68;1750861;80;21443;-74
2022/09/20 02:42:39;;;;;;;5.37;3.47;;;;;;;9.03;74.01;99808.85;1741196;80;21094;-75
2022/09/20 02:45:17;;;;;;;4.47;3.37;;;;;;;9.06;74.18;99813.02;1767210;79;21833;-74
2022/09/20 02:47:44;;;;;;;8.88;3.80;;;;;;;9.08;74.31;99812.44;1743650;80;21722;-74
2022/09/20 02:50:34;;;;;;;8.68;4.05;;;;;;;9.11;74.36;99819.59;1768832;80;20979;-75
2022/09/20 02:53:40;;;;;;;9.78;4.30;;;;;;;8.96;74.93;99814.25;1767791;79;21035;-76
2022/09/20 02:56:35;;;;;;;6.95;4.60;;;;;;;8.98;75.27;99817.63;1753843;79;20988;-75
2022/09/20 02:59:31;;;;;;;9.53;5.03;;;;;;;9.02;75.56;99807.19;1778837;79;22445;-74
2022/09/20 03:02:28;;;;;;;8.68;5.47;;;;;;;9.14;75.69;99800.06;1740170;81;20971;-74
2022/09/20 03:05:08;;;;;;;10.03;5.65;;;;;;;9.24;75.76;99793.55;1767999;79;21008;-74
2022/09/20 03:07:59;;;;;;;9.05;5.42;;;;;;;9.36;75.69;99796.47;1767572;79;21064;-75
2022/09/20 03:10:53;;;;;;;7.30;5.33;;;;;;;9.43;75.72;99800.28;1771102;79;21721;-74
2022/09/20 03:13:44;;;;;;;8.83;5.42;;;;;;;9.51;75.59;99803.11;1751774;80;21800;-74
2022/09/20 03:16:28;;;;;;;10.38;5.55;;;;;;;9.56;75.50;99799.62;1754969;80;21432;-75
2022/09/20 03:19:18;;;;;;;10.45;5.47;;;;;;;9.70;75.33;99797.95;1752685;80;21462;-74
2022/09/20 03:22:02;;;;;;;11.85;5.53;;;;;;;9.79;75.14;99795.02;1758989;80;21475;-75
2022/09/20 03:24:59;;;;;;;10.58;5.58;;;;;;;9.83;75.03;99795.09;1760849;80;21512;-75
2022/09/20 03:27:43;;;;;;;8.88;4.83;;;;;;;9.80;75.16;99802.45;1746953;80;22476;-74
2022/09/20 03:30:49;;;;;;;7.37;4.85;;;;;;;9.79;75.30;99798.14;1732266;80;21403;-75
2022/09/20 03:33:24;;;;;;;7.97;4.87;;;;;;;9.83;75.29;99796.91;1758131;80;21028;-75
2022/09/20 03:36:12;;;;;;;10.78;4.25;;;;;;;9.95;75.06;99798.03;1757467;80;21613;-75
2022/09/20 03:39:22;;;;;;;10.25;4.25;;;;;;;9.98;74.96;99795.11;1753357;80;20944;-75
2022/09/20 03:42:17;;;;;;;7.50;4.08;;;;;;;9.94;75.12;99792.86;1760384;80;21757;-75
2022/09/20 03:45:13;;;;;;;7.08;4.12;;;;;;;10.00;75.05;99789.70;1732482;80;22175;-73
2022/09/20 03:47:45;;;;;;;5.80;4.15;;;;;;;10.00;74.94;99783.94;1759914;80;20964;-74
2022/09/20 03:50:54;;;;;;;6.53;3.80;;;;;;;10.00;74.89;99792.34;1755234;80;21116;-74
2022/09/20 03:54:06;;;;;;;7.55;4.10;;;;;;;10.00;74.89;99791.86;1757845;80;21115;-75
2022/09/20 03:57:11;;;;;;;6.25;3.70;;;;;;;10.04;74.87;99793.77;1746716;80;22263;-74
2022/09/20 03:59:47;;;;;;;6.50;3.67;;;;;;;10.07;74.92;99799.25;1770233;80;21071;-75
2022/09/20 04:02:42;;;;;;;5.10;3.77;;;;;;;10.08;75.02;99795.16;1749808;80;21489;-75
2022/09/20 04:05:19;;;;;;;6.85;4.83;;;;;;;10.13;75.09;99802.66;1759040;80;21376;-74
2022/09/20 04:08:11;;;;;;;13.03;6.47;;;;;;;10.13;75.06;99804.81;1735466;80;21372;-75
2022/09/20 04:10:57;;;;;;;13.40;7.80;;;;;;;10.15;75.09;99809.50;1736922;80;22853;-74
2022/09/20 04:13:38;;;;;;;17.15;9.13;;;;;;;10.23;75.08;99812.34;1761196;81;21000;-74
2022/09/20 04:16:28;;;;;;;21.05;9.08;;;;;;;10.33;75.03;99809.73;1762227;79;21003;-75
2022/09/20 04:19:14;;;;;;;15.25;7.70;;;;;;;10.43;74.99;99807.97;1767285;79;21004;-74
2022/09/20 04:22:01;;;;;;;13.08;6.22;;;;;;;10.52;75.11;99797.08;1730624;80;21119;-73
2022/09/20 04:24:39;;;;;;;11.53;6.30;;;;;;;10.54;75.24;99797.77;1755954;81;21989;-76
2022/09/20 04:27:20;;;;;;;10.90;5.78;;;;;;;10.54;75.28;99811.81;1754218;81;21000;-75
2022/09/20 04:30:12;;;;;;;10.03;5.65;;;;;;;10.52;75.38;99800.55;1752797;80;20977;-75
2022/09/20 04:33:02;;;;;;;10.00;5.45;;;;;;;10.53;75.56;99793.47;1750781;80;20989;-75
2022/09/20 04:38:34;;;;;;;6.90;5.45;;;;;;;10.58;75.63;99796.52;1743636;80;21848;-75
2022/09/20 04:41:22;;;;;;;10.45;6.28;;;;;;;10.60;75.75;99800.69;1753496;81;20997;-75
2022/09/20 04:44:08;;;;;;;11.15;6.20;;;;;;;10.63;75.82;99798.28;1761736;80;20965;-73
2022/09/20 04:47:07;;;;;;;11.85;6.55;;;;;;;10.68;75.88;99802.66;1787067;80;21062;-72
2022/09/20 04:50:20;;;;;;;8.90;5.83;;;;;;;10.78;75.98;99807.47;1745334;80;21043;-73
2022/09/20 04:53:15;;;;;;;10.18;6.25;;;;;;;10.85;76.06;99799.34;1756628;80;21868;-72
2022/09/20 04:55:55;;;;;;;8.28;5.97;;;;;;;10.97;76.22;99798.72;1755289;81;21126;-72
2022/09/20 04:59:09;;;;;;;8.43;5.40;;;;;;;11.08;76.23;99805.19;1756397;80;21021;-73
2022/09/20 05:02:02;;;;;;;9.78;5.90;;;;;;;11.15;75.93;99802.34;1770821;80;21110;-72
2022/09/20 05:04:49;;;;;;;8.93;5.90;;;;;;;11.24;75.98;99796.71;1722813;81;21146;-73
2022/09/20 05:07:41;;;;;;;6.78;5.33;;;;;;;11.31;75.87;99794.35;1756902;80;21998;-74
2022/09/20 05:10:31;;;;;;;8.60;5.12;;;;;;;11.37;75.95;99796.41;1734996;81;21001;-74
2022/09/20 05:13:35;;;;;;;7.83;5.28;;;;;;;11.44;76.13;99792.23;1716114;81;20964;-73
2022/09/20 05:16:26;;;;;;;;;;;;;;;11.52;76.41;99791.53;1716024;81;21434;-75
2022/09/20 05:19:28;;;;;;;8.98;5.53;;;;;;;11.58;76.48;99793.59;1740320;81;20634;-73
2022/09/20 05:22:09;;;;;;;6.25;5.10;;;;;;;11.63;76.54;99796.66;1738295;81;21909;-73
2022/09/20 05:25:00;;;;;;;9.85;6.03;;;;;;;11.67;76.59;99797.55;1754352;80;21059;-75
2022/09/20 05:27:42;;;;;;;11.18;5.80;;;;;;;11.68;76.71;99794.44;1727331;82;21440;-74
2022/09/20 05:30:49;;;;;;;9.53;6.25;;;;;;;11.70;76.56;99795.13;1699308;83;21004;-74
2022/09/20 05:34:03;;;;;;;13.15;7.60;;;;;;;11.71;76.54;99795.47;1721925;82;20984;-73
2022/09/20 05:36:56;;;;;;;14.47;10.50;;;;;;;11.72;76.66;99799.78;1753836;80;21877;-72
2022/09/20 05:39:37;;;;;;;17.32;11.78;;;;;;;11.69;76.70;99795.61;1743391;81;21019;-73
2022/09/20 05:42:45;;;;;;;16.93;11.00;;;;;;;11.69;76.73;99795.61;1759083;80;21019;-73
2022/09/20 05:45:54;;;;;;;17.12;10.25;;;;;;;11.73;76.83;99790.37;1700427;82;21059;-76
2022/09/20 05:48:39;;;;;;;14.80;9.70;;;;;;;11.81;77.03;99790.17;1748830;81;21087;-72
2022/09/20 05:51:44;;;;;;;17.20;11.03;;;;;;;11.87;77.20;99787.80;1729775;81;22851;-74
2022/09/20 05:54:54;;;;;;;16.27;11.08;;;;;;;11.93;77.33;99786.38;1741962;81;21047;-72
2022/09/20 05:58:12;;;;;;;18.73;11.22;;;;;;;12.01;77.46;99780.70;1687772;83;20991;-73
2022/09/20 06:00:49;;;;;;;22.75;13.40;;;;;;;12.10;77.50;99784.78;1752936;80;21503;-74
2022/09/20 06:03:53;;;;;;;19.77;11.50;;;;;;;12.21;77.41;99782.77;1771451;80;21554;-73
2022/09/20 06:06:33;;;;;;;23.92;12.13;;;;;;;12.30;77.28;99791.16;1704053;84;21897;-73
2022/09/20 06:09:38;;;;;;;23.65;11.33;;;;;;;12.41;77.01;99795.91;1751178;80;20964;-73
2022/09/20 06:12:54;;;;;;;18.90;7.33;;;;;;;12.47;76.00;99793.52;1750619;80;21111;-74
2022/09/20 06:15:45;;;;;;;18.98;6.80;;;;;;;12.57;74.82;99793.46;1780485;79;21354;-73
2022/09/20 06:18:41;;;;;;;18.82;8.60;;;;;;;12.67;73.71;99798.70;1763551;80;21513;-71
2022/09/20 06:21:55;;;;;;;22.25;9.98;;;;;;;12.75;72.86;99798.30;1785903;80;22396;-73
2022/09/20 06:25:00;;;;;;;23.77;10.07;;;;;;;12.84;72.26;99797.90;1795787;79;21035;-74
2022/09/20 06:27:44;;;;;;;24.32;9.45;;;;;;;12.91;71.27;99793.64;1795371;78;21076;-73
2022/09/20 06:30:21;;;;;;;16.17;7.00;;;;;;;12.98;70.69;99796.03;1782062;79;21055;-73
2022/09/20 06:32:59;;;;;;;11.88;5.17;;;;;;;13.04;70.41;99798.09;1805958;79;20937;-71
2022/09/20 06:35:35;;;;;;;10.85;4.67;;;;;;;13.07;70.10;99799.59;1771348;79;22490;-73
2022/09/20 06:41:28;;;;;;;5.75;3.10;;;;;;;13.14;70.28;99800.66;1758865;80;21007;-74
2022/09/20 06:43:59;;;;;;;8.88;4.50;;;;;;;13.18;70.61;99800.19;1753465;79;21091;-72
2022/09/20 06:50:35;;;;;;;8.35;3.80;;;;;;;13.24;71.47;99801.45;1777083;79;21582;-72
2022/09/20 06:53:02;;;;;;;6.97;3.90;;;;;;;13.24;71.56;99808.08;1764046;79;21161;-73
2022/09/20 06:55:35;;;;;;;8.35;5.22;;;;;;;13.25;71.70;99805.77;1771023;80;21087;-74
2022/09/20 06:58:02;;;;;;;6.58;4.87;;;;;;;13.28;71.85;99815.23;1765608;80;21561;-72
2022/09/20 07:00:29;;;;;;;11.18;5.00;;;;;;;13.32;72.06;99823.23;1766223;79;21625;-72
2022/09/20 07:02:56;;;;;;;9.08;4.12;;;;;;;13.35;72.14;99828.22;1790479;79;22534;-73
2022/09/20 07:05:25;;;;;;;9.38;4.30;;;;;;;13.34;72.13;99829.22;1771134;79;21457;-72
2022/09/20 07:07:58;;;;;;;8.90;4.45;;;;;;;13.36;72.21;99839.17;1757708;79;21538;-72
2022/09/20 07:10:45;;;;;;;6.62;4.17;;;;;;;13.37;72.23;99844.81;1771621;80;21720;-74
2022/09/20 07:13:12;;;;;;;6.50;3.98;;;;;;;13.33;72.19;99844.79;1746387;80;21950;-74
2022/09/20 07:15:43;;;;;;;7.00;4.42;;;;;;;13.32;72.41;99841.80;1742800;80;21851;-74
2022/09/20 07:18:10;;;;;;;10.85;4.72;;;;;;;13.31;72.72;99838.28;1723975;82;21147;-75
2022/09/20 07:20:36;;;;;;;7.87;5.03;;;;;;;13.28;73.20;99835.95;1756081;80;20965;-73
2022/09/20 07:23:03;;;;;;;10.18;5.53;;;;;;;13.26;73.58;99829.97;1832472;77;21051;-73
2022/09/20 07:25:31;;;;;;;9.95;5.58;;;;;;;13.22;73.74;99831.27;1805102;78;20940;-73
2022/09/20 07:27:57;;;;;;;10.70;5.50;;;;;;;13.21;73.95;99834.05;1822752;77;21824;-73
2022/09/20 07:30:24;;;;;;;9.40;5.37;;;;;;;13.13;74.12;99831.66;1786557;78;20973;-73
2022/09/20 07:32:50;;;;;;;9.00;5.78;;;;;;;13.09;74.32;99839.55;1786672;78;20989;-73
2022/09/20 07:35:17;;;;;;;9.98;5.60;;;;;;;13.13;74.59;99841.42;1795704;77;20926;-74
2022/09/20 07:37:43;;;;;;;11.45;6.47;;;;;;;13.13;74.81;99840.94;1804323;77;21063;-73
2022/09/20 07:40:13;;;;;;;10.68;6.47;;;;;;;13.14;74.91;99847.91;1795860;77;21884;-74
2022/09/20 07:42:41;;;;;;;12.05;6.58;;;;;;;13.14;74.88;99845.25;1791127;77;21594;-72
2022/09/20 07:45:10;;;;;;;9.85;6.15;;;;;;;13.11;75.04;99852.16;1814427;77;20954;-73
2022/09/20 07:47:40;;;;;;;9.18;6.30;;;;;;;13.10;75.15;99850.98;1800621;78;21002;-73
2022/09/20 07:50:08;;;;;;;11.20;5.70;;;;;;;13.04;75.47;99851.11;1800655;78;20968;-73
2022/09/20 07:52:35;;;;;;;12.45;5.80;;;;;;;13.01;75.81;99847.42;1801674;77;21971;-75
2022/09/20 07:55:05;;;;;;;10.23;5.95;;;;;;;13.02;76.00;99853.55;1801825;77;21009;-73
2022/09/20 07:57:36;;;;;;;11.55;5.67;;;;;;;13.02;76.04;99849.08;1796906;78;21032;-73
2022/09/20 08:00:07;;;;;;;11.53;6.67;;;;;;;13.04;75.73;99858.23;1789740;78;21415;-74
2022/09/20 08:02:36;;;;;;;13.60;7.12;;;;;;;13.05;75.74;99862.06;1792391;77;21550;-74
2022/09/20 08:05:03;;;;;;;11.65;6.85;;;;;;;13.05;75.62;99863.87;1800540;78;21770;-74
2022/09/20 08:07:30;;;;;;;14.43;7.97;;;;;;;13.01;75.63;99873.09;1785657;78;21057;-73
2022/09/20 08:09:58;;;;;;;14.23;8.38;;;;;;;12.97;75.43;99871.73;1821726;77;21102;-73
2022/09/20 08:12:25;;;;;;;12.13;7.25;;;;;;;12.91;75.22;99871.83;1825603;77;21516;-76
2022/09/20 08:14:52;;;;;;;14.35;6.87;;;;;;;12.85;74.81;99873.77;1807369;78;21046;-73
2022/09/20 08:17:19;;;;;;;12.47;6.55;;;;;;;12.77;74.52;99872.34;1803172;78;21797;-73
2022/09/20 08:19:46;;;;;;;10.98;6.20;;;;;;;12.71;74.21;99875.09;1801843;78;21356;-72
2022/09/20 08:22:16;;;;;;;10.90;6.62;;;;;;;12.66;73.92;99874.70;1791849;77;21024;-71
2022/09/20 08:24:43;;;;;;;9.75;5.95;;;;;;;12.59;73.66;99870.97;1791451;79;21044;-73
2022/09/20 08:27:09;;;;;;;11.12;5.60;;;;;;;12.53;73.71;99867.57;1806258;77;21075;-73
2022/09/20 08:29:36;;;;;;;9.98;5.85;;;;;;;12.48;73.92;99860.08;1807221;77;21838;-73
2022/09/20 08:32:02;;;;;;;10.18;5.45;;;;;;;12.47;73.99;99861.55;1804008;77;21043;-74
2022/09/20 08:34:29;;;;;;;8.75;6.00;;;;;;;12.46;74.01;99864.70;1799540;77;21413;-73
2022/09/20 08:36:56;;;;;;;6.72;5.05;;;;;;;12.44;74.07;99860.50;1838369;77;21083;-74
2022/09/20 08:39:23;;;;;;;10.10;6.20;;;;;;;12.39;74.05;99854.83;1799221;78;21047;-72
2022/09/20 08:42:33;;;;;;;8.73;5.90;;;;;;;12.35;74.10;99852.11;1791571;77;22498;-73
2022/09/20 08:45:21;;;;;;;9.95;5.10;;;;;;;12.30;74.36;99850.74;1760058;77;21098;-76
2022/09/20 08:47:59;;;;;;;6.22;4.90;;;;;;;12.27;74.70;99851.53;1799861;77;21060;-73
2022/09/20 08:50:26;;;;;;;7.85;5.12;;;;;;;12.24;74.74;99838.07;1757444;80;21103;-75
2022/09/20 08:52:55;;;;;;;7.20;4.65;;;;;;;12.19;74.86;99835.05;1732626;80;21122;-75
2022/09/20 08:55:26;;;;;;;5.47;3.98;;;;;;;12.17;75.13;99833.53;1732592;82;21802;-73
2022/09/20 08:57:56;;;;;;;9.30;4.00;;;;;;;12.17;75.41;99826.42;1732455;81;21047;-71
2022/09/20 09:00:32;;;;;;;9.15;4.20;;;;;;;12.20;75.65;99819.50;1738885;80;21036;-77
2022/09/20 09:03:04;;;;;;;7.78;4.67;;;;;;;12.21;75.85;99819.84;1740171;82;21056;-75
2022/09/20 09:05:44;;;;;;;6.85;4.80;;;;;;;12.25;76.01;99809.78;1741877;80;21088;-75
2022/09/20 09:08:17;;;;;;;7.53;5.15;;;;;;;12.28;76.14;99793.63;1740549;81;22002;-71
2022/09/20 09:10:59;;;;;;;8.68;5.15;;;;;;;12.31;76.29;99782.23;1796252;78;21036;-73
2022/09/20 09:14:00;;;;;;;6.75;4.72;;;;;;;12.37;76.40;99790.09;1794618;78;21012;-71
2022/09/20 09:16:31;;;;;;;6.00;4.42;;;;;;;12.40;76.14;99781.84;1787573;79;21588;-73
2022/09/20 09:18:59;;;;;;;6.72;5.17;;;;;;;12.38;76.08;99766.59;1778604;79;22024;-71
2022/09/20 09:21:28;;;;;;;9.83;5.87;;;;;;;12.43;76.29;99757.70;1719690;79;21993;-72
2022/09/20 09:24:08;;;;;;;9.83;6.12;;;;;;;12.50;76.36;99752.65;1820864;78;21034;-71
2022/09/20 09:26:49;;;;;;;8.08;6.05;;;;;;;12.57;76.52;99746.61;1794318;79;21214;-70
2022/09/20 09:29:20;;;;;;;10.10;5.72;;;;;;;12.65;76.64;99730.47;1798712;78;21949;-73
2022/09/20 09:31:51;;;;;;;9.30;5.47;;;;;;;12.74;76.86;99725.55;1810832;77;21043;-74
2022/09/20 09:34:30;;;;;;;10.50;5.83;;;;;;;12.83;77.09;99726.80;1816108;77;21776;-73
2022/09/20 09:36:58;;;;;;;12.78;6.60;;;;;;;12.91;77.18;99716.77;1813050;77;21061;-73
2022/09/20 09:39:37;;;;;;;14.58;7.30;;;;;;;12.98;77.07;99719.16;1799617;78;21055;-70
2022/09/20 09:42:21;;;;;;;14.15;8.55;;;;;;;13.05;77.17;99722.04;1797296;78;21482;-71
2022/09/20 09:44:49;;;;;;;16.02;8.33;;;;;;;13.13;77.03;99726.09;1796681;78;21039;-72
2022/09/20 09:47:28;;;;;;;15.10;8.68;;;;;;;13.18;76.92;99735.23;1816605;77;21823;-71
2022/09/20 09:49:56;;;;;;;14.03;8.85;;;;;;;13.27;76.92;99732.17;1763732;80;21004;-70
2022/09/20 09:52:32;;;;;;;13.93;8.55;;;;;;;13.35;76.89;99726.10;1738636;80;21049;-73
2022/09/20 09:54:59;;;;;;;15.95;9.08;;;;;;;13.45;76.82;99721.53;1741641;81;21463;-72
2022/09/20 09:57:47;;;;;;;18.45;9.80;;;;;;;13.52;76.71;99718.59;1731680;80;21649;-73
2022/09/20 10:00:21;;;;;;;15.25;9.25;;;;;;;13.67;76.49;99718.83;1766421;79;21932;-72
2022/09/20 10:03:09;;;;;;;13.80;8.10;;;;;;;13.91;76.93;99722.95;1755894;81;21047;-71
2022/09/20 10:06:08;;;;;;;8.98;5.28;;;;;;;14.33;77.61;99719.44;1742611;81;21048;-72
2022/09/20 10:09:06;;;;;;;6.47;4.35;;;;;;;14.75;76.54;99715.89;1741520;81;21049;-72
2022/09/20 10:11:47;;;;;;;6.08;3.60;;;;;;;14.98;75.10;99716.92;1755606;81;21081;-72
2022/09/20 10:14:34;;;;;;;5.20;3.30;;;;;;;15.14;74.21;99706.76;1753664;80;21947;-72
2022/09/20 10:17:20;;;;;;;6.33;2.85;;;;;;;15.34;73.50;99709.89;1757759;81;21122;-72
2022/09/20 10:20:16;;;;;;;3.70;2.47;;;;;;;15.54;71.76;99695.72;1754617;81;21047;-74
2022/09/20 10:22:51;;;;;;;3.70;2.33;;;;;;;15.59;70.35;99698.72;1710223;82;21470;-72
2022/09/20 10:25:44;;;;;;;3.75;2.27;;;;;;;15.50;68.46;99697.91;1780272;78;21056;-73
2022/09/20 10:28:47;;;;;;;3.40;2.37;;;;;;;15.35;67.75;99685.81;1790431;78;22020;-74
2022/09/20 10:31:36;;;;;;;2.70;1.82;;;;;;;15.21;67.36;99678.50;1788776;78;21027;-74
2022/09/20 10:34:46;;;;;;;2.87;1.90;;;;;;;15.14;67.42;99674.84;1789822;79;21040;-75
2022/09/20 10:37:34;;;;;;;3.17;2.00;;;;;;;15.05;67.10;99677.17;1720271;82;21043;-74
2022/09/20 10:40:21;;;;;;;4.05;1.80;;;;;;;15.01;67.54;99677.19;1781936;78;21064;-73
2022/09/20 10:45:47;;;;;;;2.22;1.50;;;;;;;14.96;67.78;99666.21;1784635;78;21095;-75
2022/09/20 10:48:31;;;;;;;2.72;1.80;;;;;;;14.94;68.03;99661.56;1784322;78;21069;-75
2022/09/20 10:51:11;;;;;;;3.27;1.80;;;;;;;14.90;67.74;99657.09;1780631;78;21138;-75
2022/09/20 10:53:50;;;;;;;3.10;1.70;;;;;;;14.88;67.99;99651.12;1823185;78;21083;-73
2022/09/20 10:56:30;;;;;;;3.22;1.95;;;;;;;14.93;68.31;99641.30;1789246;78;21826;-73
2022/09/20 10:59:08;;;;;;;3.83;1.50;;;;;;;15.04;68.45;99640.94;1783910;77;21035;-73
2022/09/20 11:01:53;;;;;;;3.55;1.77;;;;;;;15.12;68.25;99636.95;1786961;79;21083;-73
2022/09/20 11:04:48;;;;;;;2.10;1.57;;;;;;;15.20;68.23;99635.61;1808471;78;21032;-76
2022/09/20 11:07:51;;;;;;;3.72;1.67;;;;;;;15.23;67.54;99627.78;1782276;78;21022;-74
2022/09/20 11:10:47;;;;;;;2.20;1.57;;;;;;;15.25;67.40;99625.77;1745675;80;21846;-74
2022/09/20 11:13:28;;;;;;;3.45;1.98;;;;;;;15.26;67.17;99617.64;1699463;78;21067;-76
2022/09/20 11:16:09;;;;;;;4.87;1.98;;;;;;;15.25;67.42;99618.65;1796759;79;21005;-72
2022/09/20 11:18:43;;;;;;;3.33;1.87;;;;;;;15.26;67.40;99615.48;1791408;78;21098;-72
2022/09/20 11:21:21;;;;;;;3.65;1.85;;;;;;;15.21;67.18;99609.33;1798528;78;21048;-72
2022/09/20 11:24:06;;;;;;;3.80;2.30;;;;;;;15.14;67.03;99607.02;1799545;77;21986;-74
2022/09/20 11:26:45;;;;;;;3.05;2.30;;;;;;;15.09;67.19;99620.00;1774852;79;21000;-72
2022/09/20 11:32:59;;;;;;;2.35;1.80;;;;;;;15.08;67.27;99618.34;1801047;79;20980;-71
2022/09/20 11:35:37;;;;;;;3.67;1.77;;;;;;;15.00;67.42;99621.84;1815277;79;21015;-72
2022/09/20 11:38:15;;;;;;;3.47;1.92;;;;;;;14.98;67.43;99618.53;1817019;77;21801;-71
2022/09/20 11:41:06;;;;;;;4.00;1.95;;;;;;;14.96;67.43;99630.31;1824853;77;21076;-71
2022/09/20 11:43:33;;;;;;;2.52;1.77;;;;;;;14.94;67.34;99634.47;1808452;79;21498;-71
2022/09/20 11:46:03;;;;;;;3.05;1.70;;;;;;;14.89;67.13;99639.48;1784991;79;20949;-71
2022/09/20 11:48:34;;;;;;;4.15;1.82;;;;;;;14.87;67.00;99638.32;1793296;79;20999;-71
2022/09/20 11:51:09;;;;;;;3.70;1.40;;;;;;;14.80;66.71;99630.67;1814970;77;21742;-70
2022/09/20 11:53:57;;;;;;;2.65;1.70;;;;;;;14.76;66.69;99631.98;1815180;79;20985;-71
2022/09/20 11:56:29;;;;;;;3.67;1.90;;;;;;;14.74;66.68;99630.50;1809097;77;21043;-70
2022/09/20 11:59:00;;;;;;;2.87;1.57;;;;;;;14.73;66.98;99628.84;1812492;78;20945;-70
2022/09/20 12:01:38;;;;;;;4.35;1.87;;;;;;;14.72;67.02;99633.33;1815462;77;21523;-70
2022/09/20 12:04:25;;;;;;;6.62;2.45;;;;;;;14.71;67.05;99634.83;1799523;79;21801;-72
2022/09/20 12:07:23;;;;;;;5.75;2.60;;;;;;;14.69;67.20;99635.00;1793492;78;20981;-71
2022/09/20 12:09:55;;;;;;;5.53;2.80;;;;;;;14.66;66.99;99636.64;1820302;77;20972;-70
2022/09/20 12:12:37;;;;;;;4.00;2.35;;;;;;;14.58;66.90;99642.81;1836751;77;21101;-68
2022/09/20 12:15:22;;;;;;;3.95;2.08;;;;;;;14.54;66.76;99652.09;1819857;77;21421;-70
2022/09/20 12:17:57;;;;;;;6.45;2.22;;;;;;;14.46;66.51;99679.14;1802021;79;21982;-69
2022/09/20 12:20:41;;;;;;;7.25;3.75;;;;;;;14.32;66.71;99715.95;1800002;79;21035;-70
2022/09/20 12:23:44;;;;;;;7.50;3.20;;;;;;;14.20;67.43;99715.09;1805392;77;20994;-70
2022/09/20 12:26:19;;;;;;;5.40;2.67;;;;;;;14.07;68.36;99711.55;1736584;81;20964;-73
2022/09/20 12:29:04;;;;;;;5.75;3.15;;;;;;;13.94;69.36;99705.86;1716760;81;21077;-71
2022/09/20 12:31:37;;;;;;;6.50;3.12;;;;;;;13.87;70.16;99699.52;1738454;81;21857;-71
2022/09/20 12:34:12;;;;;;;6.25;3.52;;;;;;;13.87;70.88;99695.53;1739422;82;20989;-72
2022/09/20 12:36:58;;;;;;;7.42;4.37;;;;;;;13.85;71.27;99697.03;1735156;82;21447;-71
2022/09/20 12:39:31;;;;;;;14.23;7.95;;;;;;;13.82;71.75;99695.20;1733631;82;21010;-72
2022/09/20 12:42:01;;;;;;;15.30;8.48;;;;;;;13.75;72.25;99690.52;1729095;81;20998;-71
2022/09/20 12:44:57;;;;;;;17.37;8.33;;;;;;;13.68;72.35;99693.45;1728896;83;21481;-72
2022/09/20 12:47:32;;;;;;;15.68;9.05;;;;;;;13.66;72.72;99696.77;1766399;80;21044;-72
2022/09/20 12:52:56;;;;;;;18.02;9.98;;;;;;;13.59;73.11;99708.17;1739333;82;21483;-71
2022/09/20 12:55:39;;;;;;;18.00;10.25;;;;;;;13.59;73.43;99703.69;1739225;81;21552;-71
2022/09/20 12:58:15;;;;;;;16.07;7.37;;;;;;;13.62;73.81;99709.20;1716000;82;21949;-74